sensor_id;sensor_type;location;lat;lon;timestamp;P1;durP1;ratioP1;P2;durP2;ratioP2
14619;SDS011;32125;48.518;9.050;2023-05-01T00:01:33;6.47;;;5.87;;
14619;SDS011;32125;48.518;9.050;2023-05-01T00:03:59;6.87;;;5.97;;
14619;SDS011;32125;48.518;9.050;2023-05-01T00:06:28;6.33;;;5.57;;
14619;SDS011;32125;48.518;9.050;2023-05-01T00:08:58;6.97;;;6.00;;
14619;SDS011;32125;48.518;9.050;2023-05-01T00:11:24;7.40;;;5.93;;
14619;SDS011;32125;48.518;9.050;2023-05-01T00:13:52;6.47;;;5.87;;
14619;SDS011;32125;48.518;9.050;2023-05-01T00:16:18;8.67;;;6.47;;
14619;SDS011;32125;48.518;9.050;2023-05-01T00:18:44;6.77;;;6.13;;
14619;SDS011;32125;48.518;9.050;2023-05-01T00:21:10;6.87;;;6.17;;
14619;SDS011;32125;48.518;9.050;2023-05-01T00:23:41;7.37;;;6.53;;
14619;SDS011;32125;48.518;9.050;2023-05-01T00:26:07;6.43;;;5.77;;
14619;SDS011;32125;48.518;9.050;2023-05-01T00:28:33;6.37;;;5.73;;
14619;SDS011;32125;48.518;9.050;2023-05-01T00:30:59;7.33;;;6.63;;
14619;SDS011;32125;48.518;9.050;2023-05-01T00:33:25;6.50;;;5.90;;
14619;SDS011;32125;48.518;9.050;2023-05-01T00:35:51;8.70;;;6.80;;
14619;SDS011;32125;48.518;9.050;2023-05-01T00:38:17;9.03;;;6.70;;
14619;SDS011;32125;48.518;9.050;2023-05-01T00:40:43;7.50;;;6.80;;
14619;SDS011;32125;48.518;9.050;2023-05-01T00:43:09;8.53;;;6.90;;
14619;SDS011;32125;48.518;9.050;2023-05-01T00:45:42;8.17;;;6.50;;
14619;SDS011;32125;48.518;9.050;2023-05-01T00:48:10;7.77;;;6.97;;
14619;SDS011;32125;48.518;9.050;2023-05-01T00:50:35;7.97;;;6.50;;
14619;SDS011;32125;48.518;9.050;2023-05-01T00:53:01;7.90;;;6.60;;
14619;SDS011;32125;48.518;9.050;2023-05-01T00:55:28;8.17;;;6.83;;
14619;SDS011;32125;48.518;9.050;2023-05-01T00:57:55;7.37;;;6.57;;
14619;SDS011;32125;48.518;9.050;2023-05-01T01:00:23;7.33;;;6.33;;
14619;SDS011;32125;48.518;9.050;2023-05-01T01:02:53;6.77;;;6.17;;
14619;SDS011;32125;48.518;9.050;2023-05-01T01:05:23;6.90;;;6.23;;
14619;SDS011;32125;48.518;9.050;2023-05-01T01:13:17;7.03;;;6.33;;
14619;SDS011;32125;48.518;9.050;2023-05-01T01:15:56;7.33;;;6.27;;
14619;SDS011;32125;48.518;9.050;2023-05-01T01:18:46;7.00;;;6.30;;
14619;SDS011;32125;48.518;9.050;2023-05-01T01:21:31;7.37;;;6.77;;
14619;SDS011;32125;48.518;9.050;2023-05-01T01:34:25;7.23;;;6.53;;
14619;SDS011;32125;48.518;9.050;2023-05-01T01:37:06;8.80;;;6.90;;
14619;SDS011;32125;48.518;9.050;2023-05-01T01:39:42;10.70;;;6.67;;
14619;SDS011;32125;48.518;9.050;2023-05-01T01:42:25;7.87;;;6.77;;
14619;SDS011;32125;48.518;9.050;2023-05-01T01:44:55;7.13;;;6.43;;
14619;SDS011;32125;48.518;9.050;2023-05-01T01:47:26;10.17;;;6.70;;
14619;SDS011;32125;48.518;9.050;2023-05-01T01:49:57;7.23;;;6.53;;
14619;SDS011;32125;48.518;9.050;2023-05-01T01:52:28;7.10;;;6.30;;
14619;SDS011;32125;48.518;9.050;2023-05-01T01:54:57;8.97;;;6.63;;
14619;SDS011;32125;48.518;9.050;2023-05-01T01:57:33;7.07;;;6.40;;
14619;SDS011;32125;48.518;9.050;2023-05-01T02:00:00;6.47;;;5.87;;
14619;SDS011;32125;48.518;9.050;2023-05-01T02:02:26;7.20;;;6.50;;
14619;SDS011;32125;48.518;9.050;2023-05-01T02:04:54;8.77;;;6.80;;
14619;SDS011;32125;48.518;9.050;2023-05-01T02:07:21;8.23;;;6.50;;
14619;SDS011;32125;48.518;9.050;2023-05-01T02:09:47;7.13;;;6.53;;
14619;SDS011;32125;48.518;9.050;2023-05-01T02:12:15;6.70;;;6.10;;
14619;SDS011;32125;48.518;9.050;2023-05-01T02:14:43;9.00;;;6.73;;
14619;SDS011;32125;48.518;9.050;2023-05-01T02:17:10;7.00;;;6.40;;
14619;SDS011;32125;48.518;9.050;2023-05-01T02:19:36;7.40;;;6.47;;
14619;SDS011;32125;48.518;9.050;2023-05-01T02:22:05;7.33;;;6.63;;
14619;SDS011;32125;48.518;9.050;2023-05-01T02:24:31;7.10;;;6.40;;
14619;SDS011;32125;48.518;9.050;2023-05-01T02:27:06;7.40;;;6.70;;
14619;SDS011;32125;48.518;9.050;2023-05-01T02:29:39;7.07;;;6.37;;
14619;SDS011;32125;48.518;9.050;2023-05-01T02:32:08;7.77;;;7.00;;
14619;SDS011;32125;48.518;9.050;2023-05-01T02:34:34;7.07;;;6.10;;
14619;SDS011;32125;48.518;9.050;2023-05-01T02:37:01;9.27;;;6.87;;
14619;SDS011;32125;48.518;9.050;2023-05-01T02:39:28;7.60;;;6.90;;
14619;SDS011;32125;48.518;9.050;2023-05-01T02:41:54;8.43;;;6.83;;
14619;SDS011;32125;48.518;9.050;2023-05-01T02:44:24;9.50;;;6.93;;
14619;SDS011;32125;48.518;9.050;2023-05-01T02:46:51;7.47;;;6.67;;
14619;SDS011;32125;48.518;9.050;2023-05-01T02:49:21;7.93;;;7.23;;
14619;SDS011;32125;48.518;9.050;2023-05-01T02:51:47;7.50;;;6.80;;
14619;SDS011;32125;48.518;9.050;2023-05-01T02:54:13;7.80;;;7.00;;
14619;SDS011;32125;48.518;9.050;2023-05-01T02:56:42;9.70;;;6.77;;
14619;SDS011;32125;48.518;9.050;2023-05-01T02:59:09;7.33;;;6.63;;
14619;SDS011;32125;48.518;9.050;2023-05-01T03:01:35;8.83;;;7.10;;
14619;SDS011;32125;48.518;9.050;2023-05-01T03:04:01;7.70;;;7.00;;
14619;SDS011;32125;48.518;9.050;2023-05-01T03:06:27;7.80;;;7.00;;
14619;SDS011;32125;48.518;9.050;2023-05-01T03:08:55;9.00;;;6.97;;
14619;SDS011;32125;48.518;9.050;2023-05-01T03:11:22;7.80;;;7.00;;
14619;SDS011;32125;48.518;9.050;2023-05-01T03:13:56;7.33;;;6.63;;
14619;SDS011;32125;48.518;9.050;2023-05-01T03:16:23;7.77;;;6.93;;
14619;SDS011;32125;48.518;9.050;2023-05-01T03:18:49;8.90;;;6.70;;
14619;SDS011;32125;48.518;9.050;2023-05-01T03:21:15;9.33;;;7.20;;
14619;SDS011;32125;48.518;9.050;2023-05-01T03:23:41;7.63;;;6.70;;
14619;SDS011;32125;48.518;9.050;2023-05-01T03:26:07;8.00;;;6.57;;
14619;SDS011;32125;48.518;9.050;2023-05-01T03:28:33;8.63;;;6.47;;
14619;SDS011;32125;48.518;9.050;2023-05-01T03:31:00;8.27;;;7.07;;
14619;SDS011;32125;48.518;9.050;2023-05-01T03:33:26;9.57;;;6.70;;
14619;SDS011;32125;48.518;9.050;2023-05-01T03:35:58;7.47;;;6.67;;
14619;SDS011;32125;48.518;9.050;2023-05-01T03:38:31;8.90;;;6.50;;
14619;SDS011;32125;48.518;9.050;2023-05-01T03:41:00;7.73;;;6.93;;
14619;SDS011;32125;48.518;9.050;2023-05-01T03:43:29;7.17;;;6.17;;
14619;SDS011;32125;48.518;9.050;2023-05-01T03:45:55;8.00;;;6.70;;
14619;SDS011;32125;48.518;9.050;2023-05-01T03:48:21;7.57;;;6.77;;
14619;SDS011;32125;48.518;9.050;2023-05-01T03:50:50;7.63;;;6.70;;
14619;SDS011;32125;48.518;9.050;2023-05-01T03:53:18;7.63;;;6.93;;
14619;SDS011;32125;48.518;9.050;2023-05-01T03:55:44;7.43;;;6.73;;
14619;SDS011;32125;48.518;9.050;2023-05-01T03:58:13;8.37;;;6.93;;
14619;SDS011;32125;48.518;9.050;2023-05-01T04:00:39;8.00;;;7.07;;
14619;SDS011;32125;48.518;9.050;2023-05-01T04:03:05;8.57;;;6.90;;
14619;SDS011;32125;48.518;9.050;2023-05-01T04:05:31;8.07;;;7.27;;
14619;SDS011;32125;48.518;9.050;2023-05-01T04:07:58;8.53;;;7.73;;
14619;SDS011;32125;48.518;9.050;2023-05-01T04:10:24;7.90;;;7.17;;
14619;SDS011;32125;48.518;9.050;2023-05-01T04:12:55;9.40;;;8.00;;
14619;SDS011;32125;48.518;9.050;2023-05-01T04:15:21;8.23;;;7.43;;
14619;SDS011;32125;48.518;9.050;2023-05-01T04:17:47;8.67;;;7.87;;
14619;SDS011;32125;48.518;9.050;2023-05-01T04:20:19;8.07;;;7.30;;
14619;SDS011;32125;48.518;9.050;2023-05-01T04:22:45;8.50;;;7.63;;
14619;SDS011;32125;48.518;9.050;2023-05-01T04:25:11;8.67;;;7.73;;
14619;SDS011;32125;48.518;9.050;2023-05-01T04:27:40;8.50;;;7.60;;
14619;SDS011;32125;48.518;9.050;2023-05-01T04:30:06;9.13;;;7.87;;
14619;SDS011;32125;48.518;9.050;2023-05-01T04:32:32;9.13;;;8.00;;
14619;SDS011;32125;48.518;9.050;2023-05-01T04:34:59;9.57;;;8.00;;
14619;SDS011;32125;48.518;9.050;2023-05-01T04:37:25;11.00;;;8.10;;
14619;SDS011;32125;48.518;9.050;2023-05-01T04:39:51;10.17;;;8.43;;
14619;SDS011;32125;48.518;9.050;2023-05-01T04:42:17;8.93;;;8.13;;
14619;SDS011;32125;48.518;9.050;2023-05-01T04:44:44;9.80;;;8.80;;
14619;SDS011;32125;48.518;9.050;2023-05-01T04:47:12;9.60;;;8.60;;
14619;SDS011;32125;48.518;9.050;2023-05-01T04:49:38;9.60;;;8.60;;
14619;SDS011;32125;48.518;9.050;2023-05-01T04:52:04;10.87;;;8.97;;
14619;SDS011;32125;48.518;9.050;2023-05-01T04:54:32;10.23;;;9.23;;
14619;SDS011;32125;48.518;9.050;2023-05-01T04:56:58;9.77;;;8.43;;
14619;SDS011;32125;48.518;9.050;2023-05-01T04:59:29;9.77;;;8.87;;
14619;SDS011;32125;48.518;9.050;2023-05-01T05:01:55;11.00;;;9.00;;
14619;SDS011;32125;48.518;9.050;2023-05-01T05:04:21;9.33;;;8.37;;
14619;SDS011;32125;48.518;9.050;2023-05-01T05:06:47;10.10;;;9.10;;
14619;SDS011;32125;48.518;9.050;2023-05-01T05:09:13;11.67;;;9.37;;
14619;SDS011;32125;48.518;9.050;2023-05-01T05:11:39;10.07;;;9.07;;
14619;SDS011;32125;48.518;9.050;2023-05-01T05:14:05;14.73;;;9.10;;
14619;SDS011;32125;48.518;9.050;2023-05-01T05:16:31;10.60;;;9.00;;
14619;SDS011;32125;48.518;9.050;2023-05-01T05:19:02;12.47;;;10.00;;
14619;SDS011;32125;48.518;9.050;2023-05-01T05:21:28;10.20;;;9.20;;
14619;SDS011;32125;48.518;9.050;2023-05-01T05:23:55;9.73;;;8.80;;
14619;SDS011;32125;48.518;9.050;2023-05-01T05:26:21;10.17;;;9.17;;
14619;SDS011;32125;48.518;9.050;2023-05-01T05:28:48;10.23;;;9.23;;
14619;SDS011;32125;48.518;9.050;2023-05-01T05:31:16;9.57;;;8.57;;
14619;SDS011;32125;48.518;9.050;2023-05-01T05:33:45;10.47;;;9.20;;
14619;SDS011;32125;48.518;9.050;2023-05-01T05:36:11;10.67;;;9.57;;
14619;SDS011;32125;48.518;9.050;2023-05-01T05:38:37;10.93;;;9.33;;
14619;SDS011;32125;48.518;9.050;2023-05-01T05:41:02;10.37;;;8.70;;
14619;SDS011;32125;48.518;9.050;2023-05-01T05:43:28;9.23;;;8.30;;
14619;SDS011;32125;48.518;9.050;2023-05-01T05:45:58;9.83;;;8.20;;
14619;SDS011;32125;48.518;9.050;2023-05-01T05:48:24;9.97;;;8.97;;
14619;SDS011;32125;48.518;9.050;2023-05-01T05:50:51;10.77;;;8.70;;
14619;SDS011;32125;48.518;9.050;2023-05-01T05:53:17;10.53;;;8.80;;
14619;SDS011;32125;48.518;9.050;2023-05-01T05:55:45;8.93;;;7.93;;
14619;SDS011;32125;48.518;9.050;2023-05-01T05:58:13;9.73;;;8.17;;
14619;SDS011;32125;48.518;9.050;2023-05-01T06:00:46;9.43;;;8.23;;
14619;SDS011;32125;48.518;9.050;2023-05-01T06:03:12;9.30;;;8.40;;
14619;SDS011;32125;48.518;9.050;2023-05-01T06:05:38;9.30;;;8.37;;
14619;SDS011;32125;48.518;9.050;2023-05-01T06:08:04;13.60;;;9.33;;
14619;SDS011;32125;48.518;9.050;2023-05-01T06:10:30;9.70;;;8.80;;
14619;SDS011;32125;48.518;9.050;2023-05-01T06:12:56;12.37;;;8.67;;
14619;SDS011;32125;48.518;9.050;2023-05-01T06:15:22;9.87;;;8.80;;
14619;SDS011;32125;48.518;9.050;2023-05-01T06:17:48;10.53;;;9.30;;
14619;SDS011;32125;48.518;9.050;2023-05-01T06:20:15;10.27;;;8.80;;
14619;SDS011;32125;48.518;9.050;2023-05-01T06:22:41;9.40;;;8.43;;
14619;SDS011;32125;48.518;9.050;2023-05-01T06:25:09;10.03;;;9.03;;
14619;SDS011;32125;48.518;9.050;2023-05-01T06:27:35;9.60;;;8.60;;
14619;SDS011;32125;48.518;9.050;2023-05-01T06:30:01;9.10;;;8.20;;
14619;SDS011;32125;48.518;9.050;2023-05-01T06:32:27;9.57;;;8.67;;
14619;SDS011;32125;48.518;9.050;2023-05-01T06:34:53;10.87;;;9.00;;
14619;SDS011;32125;48.518;9.050;2023-05-01T06:37:22;10.30;;;9.03;;
14619;SDS011;32125;48.518;9.050;2023-05-01T06:39:48;9.70;;;8.80;;
14619;SDS011;32125;48.518;9.050;2023-05-01T06:42:14;9.70;;;8.70;;
14619;SDS011;32125;48.518;9.050;2023-05-01T06:44:43;10.87;;;8.43;;
14619;SDS011;32125;48.518;9.050;2023-05-01T06:50:15;9.57;;;8.63;;
14619;SDS011;32125;48.518;9.050;2023-05-01T06:52:41;9.97;;;8.83;;
14619;SDS011;32125;48.518;9.050;2023-05-01T06:55:09;9.17;;;8.20;;
14619;SDS011;32125;48.518;9.050;2023-05-01T06:57:36;9.13;;;8.23;;
14619;SDS011;32125;48.518;9.050;2023-05-01T07:00:05;9.90;;;8.97;;
14619;SDS011;32125;48.518;9.050;2023-05-01T07:02:31;10.13;;;8.37;;
14619;SDS011;32125;48.518;9.050;2023-05-01T07:04:58;8.87;;;7.97;;
14619;SDS011;32125;48.518;9.050;2023-05-01T07:07:28;9.13;;;8.20;;
14619;SDS011;32125;48.518;9.050;2023-05-01T07:09:57;9.20;;;8.27;;
14619;SDS011;32125;48.518;9.050;2023-05-01T07:12:23;9.67;;;8.67;;
14619;SDS011;32125;48.518;9.050;2023-05-01T07:14:51;9.93;;;8.53;;
14619;SDS011;32125;48.518;9.050;2023-05-01T07:17:20;9.83;;;7.83;;
14619;SDS011;32125;48.518;9.050;2023-05-01T07:19:49;9.50;;;8.60;;
14619;SDS011;32125;48.518;9.050;2023-05-01T07:22:15;9.67;;;8.20;;
14619;SDS011;32125;48.518;9.050;2023-05-01T07:24:41;9.80;;;8.90;;
14619;SDS011;32125;48.518;9.050;2023-05-01T07:27:07;9.43;;;7.97;;
14619;SDS011;32125;48.518;9.050;2023-05-01T07:29:34;9.27;;;8.37;;
14619;SDS011;32125;48.518;9.050;2023-05-01T07:32:00;9.63;;;8.37;;
14619;SDS011;32125;48.518;9.050;2023-05-01T07:34:26;9.80;;;8.90;;
14619;SDS011;32125;48.518;9.050;2023-05-01T07:36:55;10.00;;;9.00;;
14619;SDS011;32125;48.518;9.050;2023-05-01T07:39:21;9.40;;;8.43;;
14619;SDS011;32125;48.518;9.050;2023-05-01T07:41:47;8.83;;;8.00;;
14619;SDS011;32125;48.518;9.050;2023-05-01T07:44:13;9.33;;;8.47;;
14619;SDS011;32125;48.518;9.050;2023-05-01T07:46:39;8.97;;;8.17;;
14619;SDS011;32125;48.518;9.050;2023-05-01T07:49:05;9.63;;;8.20;;
14619;SDS011;32125;48.518;9.050;2023-05-01T07:51:31;9.50;;;8.43;;
14619;SDS011;32125;48.518;9.050;2023-05-01T07:53:58;9.20;;;8.30;;
14619;SDS011;32125;48.518;9.050;2023-05-01T07:56:28;9.90;;;8.27;;
14619;SDS011;32125;48.518;9.050;2023-05-01T07:58:57;9.37;;;8.20;;
14619;SDS011;32125;48.518;9.050;2023-05-01T08:01:23;8.80;;;8.00;;
14619;SDS011;32125;48.518;9.050;2023-05-01T08:03:49;8.97;;;8.00;;
14619;SDS011;32125;48.518;9.050;2023-05-01T08:06:15;8.77;;;7.97;;
14619;SDS011;32125;48.518;9.050;2023-05-01T08:08:41;8.33;;;7.50;;
14619;SDS011;32125;48.518;9.050;2023-05-01T08:11:10;8.20;;;7.40;;
14619;SDS011;32125;48.518;9.050;2023-05-01T08:13:38;8.80;;;7.90;;
14619;SDS011;32125;48.518;9.050;2023-05-01T08:16:05;8.50;;;7.73;;
14619;SDS011;32125;48.518;9.050;2023-05-01T08:18:33;7.90;;;7.10;;
14619;SDS011;32125;48.518;9.050;2023-05-01T08:21:01;8.63;;;7.40;;
14619;SDS011;32125;48.518;9.050;2023-05-01T08:23:27;7.63;;;6.90;;
14619;SDS011;32125;48.518;9.050;2023-05-01T08:25:53;7.80;;;7.00;;
14619;SDS011;32125;48.518;9.050;2023-05-01T08:28:22;7.70;;;7.00;;
14619;SDS011;32125;48.518;9.050;2023-05-01T08:30:54;7.37;;;6.77;;
14619;SDS011;32125;48.518;9.050;2023-05-01T08:33:22;7.23;;;6.43;;
14619;SDS011;32125;48.518;9.050;2023-05-01T08:35:48;8.13;;;7.00;;
14619;SDS011;32125;48.518;9.050;2023-05-01T08:38:15;7.53;;;6.63;;
14619;SDS011;32125;48.518;9.050;2023-05-01T08:40:42;6.67;;;6.07;;
14619;SDS011;32125;48.518;9.050;2023-05-01T08:43:08;7.23;;;6.53;;
14619;SDS011;32125;48.518;9.050;2023-05-01T08:45:37;9.43;;;6.90;;
14619;SDS011;32125;48.518;9.050;2023-05-01T08:48:06;8.87;;;6.67;;
14619;SDS011;32125;48.518;9.050;2023-05-01T08:50:32;10.57;;;7.30;;
14619;SDS011;32125;48.518;9.050;2023-05-01T08:53:01;6.83;;;6.00;;
14619;SDS011;32125;48.518;9.050;2023-05-01T08:55:29;7.80;;;7.10;;
14619;SDS011;32125;48.518;9.050;2023-05-01T08:57:57;7.70;;;6.90;;
14619;SDS011;32125;48.518;9.050;2023-05-01T09:00:24;7.33;;;6.50;;
14619;SDS011;32125;48.518;9.050;2023-05-01T09:02:52;8.90;;;7.20;;
14619;SDS011;32125;48.518;9.050;2023-05-01T09:05:19;7.03;;;6.43;;
14619;SDS011;32125;48.518;9.050;2023-05-01T09:07:48;7.13;;;6.43;;
14619;SDS011;32125;48.518;9.050;2023-05-01T09:10:15;7.17;;;6.50;;
14619;SDS011;32125;48.518;9.050;2023-05-01T09:12:46;6.87;;;6.27;;
14619;SDS011;32125;48.518;9.050;2023-05-01T09:15:16;6.40;;;5.90;;
14619;SDS011;32125;48.518;9.050;2023-05-01T09:17:45;6.73;;;6.07;;
14619;SDS011;32125;48.518;9.050;2023-05-01T09:20:11;6.70;;;6.03;;
14619;SDS011;32125;48.518;9.050;2023-05-01T09:22:37;6.60;;;6.00;;
14619;SDS011;32125;48.518;9.050;2023-05-01T09:25:04;6.10;;;5.50;;
14619;SDS011;32125;48.518;9.050;2023-05-01T09:27:33;5.67;;;5.17;;
14619;SDS011;32125;48.518;9.050;2023-05-01T09:30:00;6.17;;;5.50;;
14619;SDS011;32125;48.518;9.050;2023-05-01T09:32:26;5.80;;;5.30;;
14619;SDS011;32125;48.518;9.050;2023-05-01T09:34:53;5.53;;;5.10;;
14619;SDS011;32125;48.518;9.050;2023-05-01T09:37:29;5.70;;;5.20;;
14619;SDS011;32125;48.518;9.050;2023-05-01T09:40:08;5.93;;;5.37;;
14619;SDS011;32125;48.518;9.050;2023-05-01T09:42:35;5.60;;;5.10;;
14619;SDS011;32125;48.518;9.050;2023-05-01T09:45:03;6.13;;;5.60;;
14619;SDS011;32125;48.518;9.050;2023-05-01T09:47:30;6.60;;;5.17;;
14619;SDS011;32125;48.518;9.050;2023-05-01T09:50:07;6.57;;;5.53;;
14619;SDS011;32125;48.518;9.050;2023-05-01T09:52:33;5.20;;;4.80;;
14619;SDS011;32125;48.518;9.050;2023-05-01T09:55:15;6.50;;;5.77;;
14619;SDS011;32125;48.518;9.050;2023-05-01T09:57:41;5.40;;;4.90;;
14619;SDS011;32125;48.518;9.050;2023-05-01T10:00:08;5.67;;;4.60;;
14619;SDS011;32125;48.518;9.050;2023-05-01T10:02:37;5.90;;;5.25;;
14619;SDS011;32125;48.518;9.050;2023-05-01T10:05:04;5.60;;;5.00;;
14619;SDS011;32125;48.518;9.050;2023-05-01T10:07:31;5.93;;;5.32;;
14619;SDS011;32125;48.518;9.050;2023-05-01T10:09:57;5.78;;;5.28;;
14619;SDS011;32125;48.518;9.050;2023-05-01T10:12:24;4.95;;;4.55;;
14619;SDS011;32125;48.518;9.050;2023-05-01T10:14:54;4.85;;;4.38;;
14619;SDS011;32125;48.518;9.050;2023-05-01T10:17:20;5.13;;;4.60;;
14619;SDS011;32125;48.518;9.050;2023-05-01T10:19:53;5.90;;;5.30;;
14619;SDS011;32125;48.518;9.050;2023-05-01T10:22:22;5.40;;;4.93;;
14619;SDS011;32125;48.518;9.050;2023-05-01T10:24:48;4.57;;;4.20;;
14619;SDS011;32125;48.518;9.050;2023-05-01T10:27:16;4.90;;;4.20;;
14619;SDS011;32125;48.518;9.050;2023-05-01T10:29:42;4.90;;;4.50;;
14619;SDS011;32125;48.518;9.050;2023-05-01T10:32:15;5.07;;;4.67;;
14619;SDS011;32125;48.518;9.050;2023-05-01T10:34:43;5.00;;;4.53;;
14619;SDS011;32125;48.518;9.050;2023-05-01T10:37:17;5.17;;;4.70;;
14619;SDS011;32125;48.518;9.050;2023-05-01T10:39:44;5.70;;;4.70;;
14619;SDS011;32125;48.518;9.050;2023-05-01T10:42:10;4.57;;;4.17;;
14619;SDS011;32125;48.518;9.050;2023-05-01T10:44:39;4.43;;;3.97;;
14619;SDS011;32125;48.518;9.050;2023-05-01T10:53:15;4.50;;;4.20;;
14619;SDS011;32125;48.518;9.050;2023-05-01T10:55:34;5.17;;;4.77;;
14619;SDS011;32125;48.518;9.050;2023-05-01T10:58:00;5.00;;;4.50;;
14619;SDS011;32125;48.518;9.050;2023-05-01T11:00:26;6.67;;;5.20;;
14619;SDS011;32125;48.518;9.050;2023-05-01T11:08:32;4.97;;;4.57;;
14619;SDS011;32125;48.518;9.050;2023-05-01T11:18:59;4.87;;;4.43;;
14619;SDS011;32125;48.518;9.050;2023-05-01T11:21:29;4.40;;;4.00;;
14619;SDS011;32125;48.518;9.050;2023-05-01T11:24:00;4.60;;;4.20;;
14619;SDS011;32125;48.518;9.050;2023-05-01T11:26:29;4.00;;;3.70;;
14619;SDS011;32125;48.518;9.050;2023-05-01T11:28:59;3.63;;;3.33;;
14619;SDS011;32125;48.518;9.050;2023-05-01T11:31:25;3.50;;;3.20;;
14619;SDS011;32125;48.518;9.050;2023-05-01T11:34:01;3.53;;;3.22;;
14619;SDS011;32125;48.518;9.050;2023-05-01T11:36:49;4.03;;;3.33;;
14619;SDS011;32125;48.518;9.050;2023-05-01T11:39:18;3.33;;;3.13;;
14619;SDS011;32125;48.518;9.050;2023-05-01T11:41:46;3.13;;;2.80;;
14619;SDS011;32125;48.518;9.050;2023-05-01T11:44:15;3.08;;;2.88;;
14619;SDS011;32125;48.518;9.050;2023-05-01T11:46:44;3.22;;;2.97;;
14619;SDS011;32125;48.518;9.050;2023-05-01T11:49:13;3.22;;;2.72;;
14619;SDS011;32125;48.518;9.050;2023-05-01T11:51:39;2.92;;;2.72;;
14619;SDS011;32125;48.518;9.050;2023-05-01T11:54:09;3.15;;;2.90;;
14619;SDS011;32125;48.518;9.050;2023-05-01T11:56:37;3.42;;;2.72;;
14619;SDS011;32125;48.518;9.050;2023-05-01T12:01:38;4.47;;;2.50;;
14619;SDS011;32125;48.518;9.050;2023-05-01T12:04:05;2.78;;;2.58;;
14619;SDS011;32125;48.518;9.050;2023-05-01T12:06:52;2.70;;;2.50;;
14619;SDS011;32125;48.518;9.050;2023-05-01T12:09:19;2.88;;;2.67;;
14619;SDS011;32125;48.518;9.050;2023-05-01T12:11:49;2.80;;;2.60;;
14619;SDS011;32125;48.518;9.050;2023-05-01T12:14:18;2.70;;;2.50;;
14619;SDS011;32125;48.518;9.050;2023-05-01T12:16:48;2.80;;;2.28;;
14619;SDS011;32125;48.518;9.050;2023-05-01T12:19:14;2.88;;;2.67;;
14619;SDS011;32125;48.518;9.050;2023-05-01T12:21:41;2.65;;;2.45;;
14619;SDS011;32125;48.518;9.050;2023-05-01T12:24:14;2.75;;;2.55;;
14619;SDS011;32125;48.518;9.050;2023-05-01T12:26:41;2.35;;;2.25;;
14619;SDS011;32125;48.518;9.050;2023-05-01T12:29:07;2.20;;;2.10;;
14619;SDS011;32125;48.518;9.050;2023-05-01T12:31:36;2.60;;;2.40;;
14619;SDS011;32125;48.518;9.050;2023-05-01T12:34:10;2.20;;;2.10;;
14619;SDS011;32125;48.518;9.050;2023-05-01T12:36:36;2.63;;;2.40;;
14619;SDS011;32125;48.518;9.050;2023-05-01T12:39:09;2.42;;;2.22;;
14619;SDS011;32125;48.518;9.050;2023-05-01T12:41:41;2.15;;;1.92;;
14619;SDS011;32125;48.518;9.050;2023-05-01T12:46:44;2.90;;;1.73;;
14619;SDS011;32125;48.518;9.050;2023-05-01T12:49:23;1.70;;;1.60;;
14619;SDS011;32125;48.518;9.050;2023-05-01T12:51:54;1.80;;;1.70;;
14619;SDS011;32125;48.518;9.050;2023-05-01T12:54:28;2.38;;;2.17;;
14619;SDS011;32125;48.518;9.050;2023-05-01T12:59:39;1.70;;;1.60;;
14619;SDS011;32125;48.518;9.050;2023-05-01T13:02:06;2.28;;;1.85;;
14619;SDS011;32125;48.518;9.050;2023-05-01T13:04:32;2.42;;;2.22;;
14619;SDS011;32125;48.518;9.050;2023-05-01T13:06:59;2.05;;;1.95;;
14619;SDS011;32125;48.518;9.050;2023-05-01T13:09:28;2.20;;;2.10;;
14619;SDS011;32125;48.518;9.050;2023-05-01T13:11:59;2.20;;;2.00;;
14619;SDS011;32125;48.518;9.050;2023-05-01T13:14:36;3.28;;;2.13;;
14619;SDS011;32125;48.518;9.050;2023-05-01T13:17:05;2.30;;;2.10;;
14619;SDS011;32125;48.518;9.050;2023-05-01T13:19:34;2.50;;;2.30;;
14619;SDS011;32125;48.518;9.050;2023-05-01T13:22:00;2.42;;;2.22;;
14619;SDS011;32125;48.518;9.050;2023-05-01T13:27:01;2.20;;;2.10;;
14619;SDS011;32125;48.518;9.050;2023-05-01T13:29:29;2.60;;;2.40;;
14619;SDS011;32125;48.518;9.050;2023-05-01T13:31:55;2.70;;;2.50;;
14619;SDS011;32125;48.518;9.050;2023-05-01T13:34:28;2.25;;;2.15;;
14619;SDS011;32125;48.518;9.050;2023-05-01T13:36:55;2.35;;;2.17;;
14619;SDS011;32125;48.518;9.050;2023-05-01T13:39:21;1.80;;;1.70;;
14619;SDS011;32125;48.518;9.050;2023-05-01T13:41:50;1.90;;;1.80;;
14619;SDS011;32125;48.518;9.050;2023-05-01T13:44:17;2.60;;;2.40;;
14619;SDS011;32125;48.518;9.050;2023-05-01T13:46:43;4.00;;;2.50;;
14619;SDS011;32125;48.518;9.050;2023-05-01T13:49:10;7.73;;;3.30;;
14619;SDS011;32125;48.518;9.050;2023-05-01T13:51:39;11.10;;;3.50;;
14619;SDS011;32125;48.518;9.050;2023-05-01T13:54:08;5.30;;;3.43;;
14619;SDS011;32125;48.518;9.050;2023-05-01T13:56:35;6.37;;;3.40;;
14619;SDS011;32125;48.518;9.050;2023-05-01T13:59:07;6.33;;;3.03;;
14619;SDS011;32125;48.518;9.050;2023-05-01T14:01:39;4.60;;;3.47;;
14619;SDS011;32125;48.518;9.050;2023-05-01T14:04:12;3.97;;;3.20;;
14619;SDS011;32125;48.518;9.050;2023-05-01T14:06:42;2.93;;;2.60;;
14619;SDS011;32125;48.518;9.050;2023-05-01T14:09:12;5.27;;;3.20;;
14619;SDS011;32125;48.518;9.050;2023-05-01T14:11:45;2.70;;;2.30;;
14619;SDS011;32125;48.518;9.050;2023-05-01T14:14:14;3.43;;;2.30;;
14619;SDS011;32125;48.518;9.050;2023-05-01T14:16:41;3.80;;;2.50;;
14619;SDS011;32125;48.518;9.050;2023-05-01T14:19:08;2.60;;;2.40;;
14619;SDS011;32125;48.518;9.050;2023-05-01T14:21:37;3.50;;;2.70;;
14619;SDS011;32125;48.518;9.050;2023-05-01T14:24:06;3.57;;;2.27;;
14619;SDS011;32125;48.518;9.050;2023-05-01T14:26:32;2.27;;;2.07;;
14619;SDS011;32125;48.518;9.050;2023-05-01T14:28:58;2.40;;;2.20;;
14619;SDS011;32125;48.518;9.050;2023-05-01T14:31:28;3.03;;;2.80;;
14619;SDS011;32125;48.518;9.050;2023-05-01T14:33:58;5.30;;;2.83;;
14619;SDS011;32125;48.518;9.050;2023-05-01T14:36:25;4.70;;;2.87;;
14619;SDS011;32125;48.518;9.050;2023-05-01T14:39:01;4.53;;;3.23;;
14619;SDS011;32125;48.518;9.050;2023-05-01T14:41:28;4.60;;;3.13;;
14619;SDS011;32125;48.518;9.050;2023-05-01T14:43:54;3.73;;;3.23;;
14619;SDS011;32125;48.518;9.050;2023-05-01T14:48:55;3.60;;;3.30;;
14619;SDS011;32125;48.518;9.050;2023-05-01T14:51:22;4.77;;;3.47;;
14619;SDS011;32125;48.518;9.050;2023-05-01T14:53:48;4.07;;;3.50;;
14619;SDS011;32125;48.518;9.050;2023-05-01T14:56:14;7.03;;;3.83;;
14619;SDS011;32125;48.518;9.050;2023-05-01T14:58:40;4.37;;;3.93;;
14619;SDS011;32125;48.518;9.050;2023-05-01T15:01:06;6.03;;;4.40;;
14619;SDS011;32125;48.518;9.050;2023-05-01T15:03:32;4.57;;;4.17;;
14619;SDS011;32125;48.518;9.050;2023-05-01T15:06:05;5.37;;;4.53;;
14619;SDS011;32125;48.518;9.050;2023-05-01T15:08:31;5.20;;;4.57;;
14619;SDS011;32125;48.518;9.050;2023-05-01T15:11:01;5.30;;;4.80;;
14619;SDS011;32125;48.518;9.050;2023-05-01T15:13:27;4.60;;;4.07;;
14619;SDS011;32125;48.518;9.050;2023-05-01T15:15:55;5.17;;;3.90;;
14619;SDS011;32125;48.518;9.050;2023-05-01T15:18:22;5.97;;;4.40;;
14619;SDS011;32125;48.518;9.050;2023-05-01T15:20:49;5.20;;;4.70;;
14619;SDS011;32125;48.518;9.050;2023-05-01T15:23:15;5.10;;;3.90;;
14619;SDS011;32125;48.518;9.050;2023-05-01T15:25:41;3.90;;;3.60;;
14619;SDS011;32125;48.518;9.050;2023-05-01T15:28:14;4.83;;;3.80;;
14619;SDS011;32125;48.518;9.050;2023-05-01T15:30:43;3.67;;;3.27;;
14619;SDS011;32125;48.518;9.050;2023-05-01T15:33:17;3.40;;;3.13;;
14619;SDS011;32125;48.518;9.050;2023-05-01T15:35:44;2.93;;;2.73;;
14619;SDS011;32125;48.518;9.050;2023-05-01T15:38:10;3.40;;;3.07;;
14619;SDS011;32125;48.518;9.050;2023-05-01T15:40:37;6.37;;;3.23;;
14619;SDS011;32125;48.518;9.050;2023-05-01T15:43:03;3.63;;;2.70;;